Air Sicilia Virtual Airways - Rotta

Air Sicilia Virtual Airways - SIC009A

( IT ) LICC - 00:00
Catania-Fontanarossa Airport
CATANIA ( CTA )
plane_to ( IT ) LICR - 00:00
Reggio Calabria Airport
REGGIO CALABRIA ( REG )

AIRPORT NEAR NAVIGATION AIDS

Tipo Nome Frequenza
NDB Catania 345 KHZ
VOR-DME Catania Fontanarossa 116250 KHZ
NDB Catania Fontanarossa 407 KHZ

METAR / TAF
LICC 250350Z 02007KT CAVOK 06/M04 Q1027
LICC 242300Z 2500/2524 04012KT 9999 SCT040

INFORMAZIONI PISTE

Pista Lunghezza pista Larghezza pista Elevazione pista Runway displaced threshold Prua pista
08 7989 148 37 312 84
26 7989 148 17 279 264

FREQUENZE AEROPORTO

Tipo Nome Frequenza
APP APP 119.25 MHZ
DIR DIRECTOR 120.8 MHZ
GND GND 129.725 MHZ
TWR TWR 118.7 MHZ

AIRPORT NEAR NAVIGATION AIDS

Tipo Nome Frequenza
VOR-DME Reggio Calabria 111000 KHZ
NDB Reggio Calabria 325 KHZ

METAR / TAF
LICR 250350Z AUTO 03010KT 9999 NCD 05/M04 Q1028
LICR 242300Z 2500/2524 01014KT 9999 SCT040

INFORMAZIONI PISTE

Pista Lunghezza pista Larghezza pista Elevazione pista Runway displaced threshold Prua pista
11 5574 148 38 0 113
29 5574 148 43 0 293
15 6549 148 84 840 153
33 6549 148 34 164 333

FREQUENZE AEROPORTO

Tipo Nome Frequenza
APP APP 120.275 MHZ
TWR TWR 118.25 MHZ

Piano di volo

VFR

Air Sicilia Virtual Airways Aerei

Aerei disponibili per la rotta in questo momento a Catania-Fontanarossa Airport
CL30 - BD-100 Challenger 300
( CA ) Bombardier

Aerei in flotta: 1

45.7485 NM

Distanza in Miglia Nautiche.

€ 264,00

Costo del biglietto per questo volo.

0 h.

Tempo di volo stimato.




12-11-2018
Aerosoft Airport Rio de Janeiro International V2.0 XP

L'Aeroporto Internazionale di Rio de Janeiro-Galeão (IATA: GIG, ICAO: SBGL), costruito nel 1952 nel quartiere di Ilha do Governador ed intitolato al musicista Antônio Carlos Jobim, è il principale aeroporto internazio ....


15-10-2018
Aerosoft A320 Family professional

La gamma di aeromobili A320 è una delle più comuni nei cieli. Questi aerei di linea a doppio-getto a corto e medio raggio si sono dimostrati convenienti, affidabili e prontamente disponibili, rendendoli le opzioni migl ....


10-10-2018
Motore critico ( Critical Engine )

Il motore critico di un velivolo ad ala fissa multi-motore è il motore che, in caso di guasto, influirebbe negativamente sulle prestazioni o sulla capacità di manovra di un aereo. Sui velivoli ad elica, vi è un ....


04-10-2018
Aerosoft Dortmund XP

Scopri il centro della regione della Ruhr su XPlane 11 - lo scenario Dortmund XP è una ricostruzione completa della città di Dortmund per il simulatore di volo targato Laminar. Oltre all'intera area urbana di Dortmu ....


07-08-2018
Aerosoft Professional Flight Planner PFPX

PFPX - Professional Flight Planner X - è un nuovo ed innovativo strumento di pianificazione del volo sviluppato da piloti e dispatcher del mondo reale. È un'aggiunta preziosa e realistica alla tua esperienza di simulaz ....